Time;durP1;ratioP1;P1;durP2;ratioP2;P2;SDS_P1;SDS_P2;PMS_P1;PMS_P2;Temp;Humidity;BMP_temperature;BMP_pressure;BME280_temperature;BME280_humidity;BME280_pressure;Samples;Min_cycle;Max_cycle;Signal;HPM_P1;HPM_P2
2021/10/17 00:02:08;;;;;;;11.43;4.97;;;11.00;99.90;;;;;;5052777;28;20474;-67
2021/10/17 00:04:34;;;;;;;9.35;4.03;;;11.00;99.90;;;;;;5040011;28;20055;-66
2021/10/17 00:06:59;;;;;;;10.85;4.88;;;11.00;99.90;;;;;;5031987;28;20026;-66
2021/10/17 00:09:25;;;;;;;10.15;4.65;;;11.00;99.90;;;;;;5032388;28;20025;-65
2021/10/17 00:11:51;;;;;;;10.13;4.38;;;11.00;99.90;;;;;;5031938;28;20037;-66
2021/10/17 00:14:16;;;;;;;11.77;4.85;;;11.10;99.90;;;;;;5032793;28;20072;-65
2021/10/17 00:16:42;;;;;;;11.63;5.28;;;11.10;99.90;;;;;;5031785;28;20052;-65
2021/10/17 00:19:07;;;;;;;12.65;5.32;;;10.90;99.90;;;;;;5035572;28;20116;-66
2021/10/17 00:21:33;;;;;;;9.52;5.00;;;11.00;99.90;;;;;;5042491;28;20153;-67
2021/10/17 00:23:59;;;;;;;10.63;5.45;;;10.80;99.90;;;;;;5033166;28;20026;-66
2021/10/17 00:26:25;;;;;;;11.45;5.43;;;10.80;99.90;;;;;;5032053;28;20046;-65
2021/10/17 00:28:50;;;;;;;9.82;4.68;;;10.80;99.90;;;;;;5031183;28;20045;-66
2021/10/17 00:31:16;;;;;;;11.15;4.70;;;10.70;99.90;;;;;;5030490;28;20489;-64
2021/10/17 00:33:42;;;;;;;10.10;4.22;;;10.70;99.90;;;;;;5036817;28;20045;-65
2021/10/17 00:36:08;;;;;;;9.18;3.88;;;10.70;99.90;;;;;;5051921;28;20043;-65
2021/10/17 00:38:33;;;;;;;9.82;3.97;;;10.70;99.90;;;;;;5051132;28;20032;-65
2021/10/17 00:40:59;;;;;;;10.23;4.35;;;10.60;99.90;;;;;;5050852;28;20032;-65
2021/10/17 00:43:25;;;;;;;8.13;3.83;;;10.60;99.90;;;;;;5051220;28;20031;-65
2021/10/17 00:45:50;;;;;;;7.97;4.38;;;10.60;99.90;;;;;;5050854;28;20160;-65
2021/10/17 00:48:16;;;;;;;7.35;4.05;;;10.70;99.90;;;;;;5049628;28;20326;-66
2021/10/17 00:50:42;;;;;;;12.73;4.60;;;10.50;99.90;;;;;;5050146;28;20116;-66
2021/10/17 00:53:07;;;;;;;10.38;4.70;;;10.40;99.90;;;;;;5051540;28;20021;-65
2021/10/17 00:55:33;;;;;;;11.07;4.57;;;10.50;99.90;;;;;;5049861;28;20438;-65
2021/10/17 00:58:01;;;;;;;11.15;4.03;;;10.50;99.90;;;;;;5050852;28;20281;-65
2021/10/17 01:00:27;;;;;;;14.68;3.75;;;10.50;99.90;;;;;;5032509;28;20033;-65
2021/10/17 01:02:53;;;;;;;9.43;3.47;;;10.50;99.90;;;;;;5029542;28;20154;-66
2021/10/17 01:05:19;;;;;;;8.00;3.35;;;10.60;99.90;;;;;;5041365;28;20521;-65
2021/10/17 01:07:46;;;;;;;10.38;4.00;;;10.60;99.90;;;;;;5030189;28;20029;-67
2021/10/17 01:10:13;;;;;;;8.57;3.58;;;10.70;99.90;;;;;;5029603;28;20029;-66
2021/10/17 01:12:38;;;;;;;9.05;3.10;;;10.60;99.90;;;;;;5030786;28;20457;-65
2021/10/17 01:15:05;;;;;;;7.90;4.10;;;10.60;99.90;;;;;;5028457;28;20068;-66
2021/10/17 01:17:34;;;;;;;8.00;3.45;;;10.60;99.90;;;;;;5030579;28;20044;-65
2021/10/17 01:19:59;;;;;;;9.15;3.33;;;10.70;99.90;;;;;;5029768;28;20040;-65
2021/10/17 01:22:25;;;;;;;8.73;3.60;;;10.60;99.90;;;;;;5028888;28;20383;-65
2021/10/17 01:24:52;;;;;;;9.93;3.53;;;10.70;99.90;;;;;;5030922;28;20040;-67
2021/10/17 01:27:19;;;;;;;6.88;3.42;;;10.60;99.90;;;;;;5050692;28;20037;-65
2021/10/17 01:29:47;;;;;;;10.82;3.90;;;10.60;99.90;;;;;;5048642;28;20083;-72
2021/10/17 01:32:13;;;;;;;9.02;3.45;;;10.60;99.90;;;;;;5049667;28;20025;-66
2021/10/17 01:34:38;;;;;;;10.18;3.25;;;10.50;99.90;;;;;;5050394;28;20075;-65
2021/10/17 01:37:04;;;;;;;7.90;4.00;;;10.60;99.90;;;;;;5036203;28;20305;-65
2021/10/17 01:39:30;;;;;;;7.15;3.30;;;10.50;99.90;;;;;;5030369;28;20037;-65
2021/10/17 01:41:56;;;;;;;15.23;3.90;;;10.60;99.90;;;;;;5029422;28;20471;-66
2021/10/17 01:44:27;;;;;;;10.20;3.55;;;10.50;99.90;;;;;;5029943;28;20430;-65
2021/10/17 01:46:55;;;;;;;9.52;3.75;;;10.60;99.90;;;;;;5028344;28;20029;-65
2021/10/17 01:49:20;;;;;;;11.10;3.40;;;10.60;99.90;;;;;;5029154;28;20029;-65
2021/10/17 01:51:46;;;;;;;10.98;3.97;;;10.70;99.90;;;;;;5028378;28;20431;-71
2021/10/17 01:54:12;;;;;;;8.15;3.33;;;10.70;99.90;;;;;;5029985;28;20103;-70
2021/10/17 01:56:38;;;;;;;11.68;3.28;;;10.60;99.90;;;;;;5037937;28;20038;-66
2021/10/17 01:59:04;;;;;;;5.78;3.58;;;10.60;99.90;;;;;;5044206;28;20076;-67
2021/10/17 02:01:29;;;;;;;14.05;4.03;;;10.60;99.90;;;;;;5050735;28;20059;-66
2021/10/17 02:03:58;;;;;;;10.60;3.83;;;10.60;99.90;;;;;;5049747;28;20025;-65
2021/10/17 02:06:24;;;;;;;8.15;3.00;;;10.60;99.90;;;;;;5050622;28;20029;-65
2021/10/17 02:08:49;;;;;;;13.02;4.88;;;10.70;99.90;;;;;;5049932;28;20052;-65
2021/10/17 02:11:15;;;;;;;13.52;5.10;;;10.60;99.90;;;;;;5049097;28;20516;-65
2021/10/17 02:13:40;;;;;;;17.05;4.38;;;10.60;99.90;;;;;;5050397;28;20036;-65
2021/10/17 02:16:06;;;;;;;8.77;3.75;;;10.60;99.90;;;;;;5049893;28;20025;-65
2021/10/17 02:18:32;;;;;;;9.38;3.42;;;10.60;99.90;;;;;;5050827;28;20057;-65
2021/10/17 02:20:58;;;;;;;8.32;3.42;;;10.70;99.90;;;;;;5049847;28;20100;-65
2021/10/17 02:23:24;;;;;;;8.82;3.90;;;10.60;99.90;;;;;;5050186;28;20033;-65
2021/10/17 02:25:50;;;;;;;8.52;3.47;;;10.60;99.90;;;;;;5049464;28;20049;-66
2021/10/17 02:28:15;;;;;;;10.15;3.75;;;10.60;99.90;;;;;;5049276;28;20124;-66
2021/10/17 02:30:41;;;;;;;10.82;4.43;;;10.70;99.90;;;;;;5050104;28;20040;-65
2021/10/17 02:33:07;;;;;;;7.55;3.45;;;10.60;99.90;;;;;;5049857;28;20039;-65
2021/10/17 02:35:32;;;;;;;9.40;3.53;;;10.70;99.90;;;;;;5048941;28;20465;-65
2021/10/17 02:37:58;;;;;;;7.75;3.63;;;10.70;99.90;;;;;;5048365;28;20029;-65
2021/10/17 02:40:24;;;;;;;10.82;4.00;;;10.60;99.90;;;;;;5049084;28;20028;-65
2021/10/17 02:42:49;;;;;;;8.68;3.28;;;10.60;99.90;;;;;;5047953;28;20166;-66
2021/10/17 02:45:15;;;;;;;14.48;3.83;;;10.60;99.90;;;;;;5048895;28;20025;-65
2021/10/17 02:47:41;;;;;;;11.15;4.50;;;10.70;99.90;;;;;;5048747;28;20025;-65
2021/10/17 02:50:07;;;;;;;7.85;4.25;;;10.70;99.90;;;;;;5049185;28;20064;-66
2021/10/17 02:52:32;;;;;;;14.02;4.75;;;10.70;99.90;;;;;;5050326;28;20051;-65
2021/10/17 02:54:58;;;;;;;8.85;5.10;;;10.70;99.90;;;;;;5047796;28;20124;-64
2021/10/17 02:57:24;;;;;;;17.77;8.10;;;10.60;99.90;;;;;;5048705;28;20025;-65
2021/10/17 02:59:50;;;;;;;12.07;6.13;;;10.70;99.90;;;;;;5049560;28;20036;-64
2021/10/17 03:02:15;;;;;;;16.40;7.65;;;10.60;99.90;;;;;;5050405;28;20025;-64
2021/10/17 03:04:41;;;;;;;13.82;5.65;;;10.70;99.90;;;;;;5050250;28;20094;-65
2021/10/17 03:07:06;;;;;;;9.93;4.75;;;10.60;99.90;;;;;;5048148;28;20428;-65
2021/10/17 03:09:32;;;;;;;13.70;5.78;;;10.60;99.90;;;;;;5049730;28;20039;-64
2021/10/17 03:11:58;;;;;;;9.82;4.90;;;10.60;99.90;;;;;;5051015;28;20029;-65
2021/10/17 03:14:23;;;;;;;9.38;3.58;;;10.50;99.90;;;;;;5052169;28;20029;-65
2021/10/17 03:16:49;;;;;;;9.20;3.78;;;10.50;99.90;;;;;;5052794;28;20442;-65
2021/10/17 03:19:15;;;;;;;10.20;4.07;;;10.50;99.90;;;;;;5053160;28;20054;-65
2021/10/17 03:21:42;;;;;;;8.68;3.28;;;10.30;99.90;;;;;;5053381;28;20021;-65
2021/10/17 03:24:07;;;;;;;9.45;3.75;;;10.30;99.90;;;;;;5052603;28;20132;-65
2021/10/17 03:26:33;;;;;;;15.23;4.30;;;10.20;99.90;;;;;;5051801;28;20064;-65
2021/10/17 03:28:59;;;;;;;10.23;3.90;;;10.20;99.90;;;;;;5051516;28;20021;-66
2021/10/17 03:31:25;;;;;;;16.92;4.68;;;10.30;99.90;;;;;;5053450;28;20352;-65
2021/10/17 03:33:50;;;;;;;12.25;4.93;;;10.30;99.90;;;;;;5051441;28;20033;-65
2021/10/17 03:36:16;;;;;;;11.80;3.80;;;10.30;99.90;;;;;;5053127;28;20101;-65
2021/10/17 03:38:42;;;;;;;8.88;3.55;;;10.30;99.90;;;;;;5053710;28;20033;-65
2021/10/17 03:41:07;;;;;;;11.05;4.10;;;10.20;99.90;;;;;;5052636;28;20251;-65
2021/10/17 03:43:33;;;;;;;9.48;3.70;;;10.20;99.90;;;;;;5053250;28;20029;-66
2021/10/17 03:45:59;;;;;;;12.65;4.07;;;10.20;99.90;;;;;;5052334;28;20021;-64
2021/10/17 03:48:25;;;;;;;11.85;4.40;;;10.20;99.90;;;;;;5051819;28;20025;-64
2021/10/17 03:50:50;;;;;;;8.80;4.68;;;10.20;99.90;;;;;;5052180;28;20041;-65
2021/10/17 03:53:16;;;;;;;10.70;5.53;;;10.20;99.90;;;;;;5051486;28;20036;-65
2021/10/17 03:55:42;;;;;;;13.55;4.30;;;10.20;99.90;;;;;;5052458;28;20033;-65
2021/10/17 03:58:08;;;;;;;7.80;4.18;;;10.30;99.90;;;;;;5052252;28;20473;-65
2021/10/17 04:00:35;;;;;;;11.68;4.07;;;10.20;99.90;;;;;;5052888;28;20029;-65
2021/10/17 04:03:01;;;;;;;11.95;4.47;;;10.20;99.90;;;;;;5052186;28;20489;-65
2021/10/17 04:05:27;;;;;;;9.88;4.38;;;10.40;99.90;;;;;;5052753;28;20508;-65
2021/10/17 04:07:53;;;;;;;8.82;3.78;;;10.30;99.90;;;;;;5050721;28;20057;-65
2021/10/17 04:10:18;;;;;;;7.28;3.55;;;10.20;99.90;;;;;;5052570;28;20451;-65
2021/10/17 04:12:44;;;;;;;12.93;4.68;;;10.30;99.90;;;;;;5052604;28;20451;-66
2021/10/17 04:15:10;;;;;;;8.45;3.47;;;10.30;99.90;;;;;;5050354;28;20075;-66
2021/10/17 04:17:36;;;;;;;9.40;4.43;;;10.40;99.90;;;;;;5051061;28;20025;-64
2021/10/17 04:20:03;;;;;;;8.73;4.70;;;10.20;99.90;;;;;;5051828;28;20457;-64
2021/10/17 04:22:28;;;;;;;10.75;4.50;;;10.20;99.90;;;;;;5051251;28;20021;-65
2021/10/17 04:24:54;;;;;;;7.28;3.67;;;10.20;99.90;;;;;;5051126;28;20075;-65
2021/10/17 04:27:19;;;;;;;8.40;4.20;;;10.20;99.90;;;;;;5052259;28;20029;-65
2021/10/17 04:29:45;;;;;;;8.32;3.97;;;10.00;99.90;;;;;;5051663;28;20040;-65
2021/10/17 04:32:11;;;;;;;11.75;4.07;;;10.10;99.90;;;;;;5051296;28;20033;-66
2021/10/17 04:34:37;;;;;;;9.90;4.05;;;10.10;99.90;;;;;;5051807;28;20455;-64
2021/10/17 04:37:05;;;;;;;12.45;4.88;;;10.20;99.90;;;;;;5051289;28;20025;-64
2021/10/17 04:39:31;;;;;;;8.93;4.57;;;10.20;99.90;;;;;;5051670;28;20033;-65
2021/10/17 04:41:57;;;;;;;10.07;4.00;;;10.00;99.90;;;;;;5049571;28;20032;-65
2021/10/17 04:44:22;;;;;;;9.80;4.50;;;10.00;99.90;;;;;;5050276;28;20165;-65
2021/10/17 04:46:48;;;;;;;11.07;3.47;;;10.00;99.90;;;;;;5051777;28;20064;-65
2021/10/17 04:49:13;;;;;;;9.95;4.00;;;10.00;99.90;;;;;;5050663;28;20489;-66
2021/10/17 04:51:39;;;;;;;11.02;4.35;;;10.00;99.90;;;;;;5051380;28;20036;-65
2021/10/17 04:54:05;;;;;;;8.63;4.13;;;10.10;99.90;;;;;;5050902;28;20021;-66
2021/10/17 04:56:31;;;;;;;7.32;3.80;;;10.20;99.90;;;;;;5049884;28;20067;-65
2021/10/17 04:58:57;;;;;;;11.10;3.95;;;10.20;99.90;;;;;;5051152;28;20474;-66
2021/10/17 05:01:22;;;;;;;9.68;3.72;;;10.20;99.90;;;;;;5051620;28;20104;-66
2021/10/17 05:03:48;;;;;;;7.30;3.58;;;10.10;99.90;;;;;;5051559;28;20028;-65
2021/10/17 05:06:14;;;;;;;11.35;4.15;;;10.20;99.90;;;;;;5051166;28;20033;-64
2021/10/17 05:08:39;;;;;;;13.27;4.18;;;10.30;99.90;;;;;;5051342;28;20032;-65
2021/10/17 05:11:05;;;;;;;11.80;4.22;;;10.30;99.90;;;;;;5049355;28;20041;-65
2021/10/17 05:13:31;;;;;;;10.50;3.42;;;10.20;99.90;;;;;;5051509;28;20347;-65
2021/10/17 05:15:57;;;;;;;7.43;3.03;;;10.20;99.90;;;;;;5050280;28;20104;-65
2021/10/17 05:18:23;;;;;;;9.32;3.55;;;10.30;99.90;;;;;;5049813;28;20040;-65
2021/10/17 05:20:48;;;;;;;10.02;3.65;;;10.30;99.90;;;;;;5051035;28;20064;-64
2021/10/17 05:23:15;;;;;;;11.10;4.38;;;10.30;99.90;;;;;;5050594;28;20041;-65
2021/10/17 05:25:42;;;;;;;8.00;3.83;;;10.20;99.90;;;;;;5050850;28;20131;-66
2021/10/17 05:28:08;;;;;;;10.65;3.22;;;10.30;99.90;;;;;;5050171;28;20037;-66
2021/10/17 05:30:34;;;;;;;10.15;3.83;;;10.40;99.90;;;;;;5049774;28;20025;-66
2021/10/17 05:33:02;;;;;;;12.00;5.03;;;10.40;99.90;;;;;;5048739;28;20029;-65
2021/10/17 05:35:27;;;;;;;7.78;3.35;;;10.40;99.90;;;;;;5049570;28;20059;-65
2021/10/17 05:37:53;;;;;;;6.25;3.50;;;10.30;99.90;;;;;;5050891;28;20493;-65
2021/10/17 05:40:19;;;;;;;11.65;4.10;;;10.30;99.90;;;;;;5050086;28;20029;-65
2021/10/17 05:42:44;;;;;;;11.07;3.55;;;10.30;99.90;;;;;;5049499;28;20032;-66
2021/10/17 05:45:10;;;;;;;11.63;4.25;;;10.30;99.90;;;;;;5049936;28;20394;-65
2021/10/17 05:47:36;;;;;;;10.15;3.33;;;10.30;99.90;;;;;;5050854;28;20025;-65
2021/10/17 05:50:03;;;;;;;9.60;4.20;;;10.30;99.90;;;;;;5048556;28;20087;-66
2021/10/17 05:52:29;;;;;;;11.05;3.55;;;10.20;99.90;;;;;;5051085;28;20029;-65
2021/10/17 05:54:54;;;;;;;18.35;4.45;;;10.20;99.90;;;;;;5049005;28;20083;-64
2021/10/17 05:57:20;;;;;;;14.48;4.63;;;10.20;99.90;;;;;;5049750;28;20052;-65
2021/10/17 05:59:46;;;;;;;12.13;4.93;;;10.30;99.90;;;;;;5050540;28;20467;-64
2021/10/17 06:02:12;;;;;;;12.55;4.63;;;10.30;99.90;;;;;;5048531;28;20060;-65
2021/10/17 06:04:37;;;;;;;10.32;4.05;;;10.30;99.90;;;;;;5049197;28;20425;-65
2021/10/17 06:07:03;;;;;;;8.25;4.03;;;10.20;99.90;;;;;;5049764;28;20379;-66
2021/10/17 06:09:37;;;;;;;7.38;3.78;;;10.30;99.90;;;;;;5050609;28;20090;-65
2021/10/17 06:12:03;;;;;;;10.65;4.30;;;10.20;99.90;;;;;;5049944;28;20033;-66
2021/10/17 06:14:29;;;;;;;8.90;3.85;;;10.30;99.90;;;;;;5050797;28;20040;-65
2021/10/17 06:16:55;;;;;;;10.90;5.07;;;10.20;99.90;;;;;;5049012;28;20021;-66
2021/10/17 06:19:21;;;;;;;11.25;4.47;;;10.20;99.90;;;;;;5048032;28;20033;-68
2021/10/17 06:21:47;;;;;;;9.02;4.05;;;10.30;99.90;;;;;;5050399;28;20162;-66
2021/10/17 06:24:12;;;;;;;8.50;4.35;;;10.30;99.90;;;;;;5048200;28;20120;-65
2021/10/17 06:26:38;;;;;;;12.73;4.50;;;10.30;99.90;;;;;;5048418;28;20055;-65
2021/10/17 06:29:04;;;;;;;8.77;4.20;;;10.30;99.90;;;;;;5049117;28;20090;-65
2021/10/17 06:31:30;;;;;;;8.90;4.70;;;10.30;99.90;;;;;;5050478;28;20037;-65
2021/10/17 06:33:56;;;;;;;13.63;4.50;;;10.30;99.90;;;;;;5050096;28;20383;-65
2021/10/17 06:36:21;;;;;;;10.05;4.20;;;10.40;99.90;;;;;;5049185;28;20040;-65
2021/10/17 06:38:47;;;;;;;10.18;4.78;;;10.40;99.90;;;;;;5049857;28;20029;-65
2021/10/17 06:41:12;;;;;;;11.25;4.82;;;10.40;99.90;;;;;;5049480;28;20060;-64
2021/10/17 06:43:38;;;;;;;9.90;4.20;;;10.30;99.90;;;;;;5049565;28;20025;-64
2021/10/17 06:46:03;;;;;;;11.63;3.72;;;10.40;99.90;;;;;;5051069;28;20040;-65
2021/10/17 06:48:29;;;;;;;11.48;4.05;;;10.40;99.90;;;;;;5054391;28;20127;-65
2021/10/17 06:50:55;;;;;;;11.57;4.57;;;10.40;99.90;;;;;;5053999;28;20091;-65
2021/10/17 06:53:20;;;;;;;12.35;4.30;;;10.50;99.90;;;;;;5053715;28;20087;-66
2021/10/17 06:55:46;;;;;;;15.32;4.53;;;10.50;99.90;;;;;;5053988;28;20025;-65
2021/10/17 06:58:12;;;;;;;13.50;3.65;;;10.50;99.90;;;;;;5052094;28;20075;-65
2021/10/17 07:00:38;;;;;;;8.63;4.72;;;10.50;99.90;;;;;;5054321;28;20036;-65
2021/10/17 07:03:04;;;;;;;10.02;3.85;;;10.60;99.90;;;;;;5053535;28;20029;-64
2021/10/17 07:05:30;;;;;;;8.30;3.05;;;10.80;99.90;;;;;;5053980;28;20028;-65
2021/10/17 07:07:56;;;;;;;10.75;3.83;;;10.80;99.90;;;;;;5053561;28;20032;-67
2021/10/17 07:10:22;;;;;;;18.48;4.28;;;10.90;99.90;;;;;;5051805;28;20242;-65
2021/10/17 07:12:47;;;;;;;9.23;3.95;;;10.90;99.90;;;;;;5054316;28;20577;-65
2021/10/17 07:15:13;;;;;;;12.05;3.90;;;10.90;99.90;;;;;;5053676;28;20025;-65
2021/10/17 07:17:39;;;;;;;12.35;4.22;;;10.90;99.90;;;;;;5053731;28;20028;-65
2021/10/17 07:20:05;;;;;;;6.78;3.72;;;10.80;99.90;;;;;;5051711;28;20335;-65
2021/10/17 07:22:31;;;;;;;11.05;4.03;;;10.90;99.90;;;;;;5053478;28;20025;-65
2021/10/17 07:24:56;;;;;;;9.75;3.80;;;11.00;99.90;;;;;;5053509;28;20036;-66
2021/10/17 07:27:22;;;;;;;12.55;3.45;;;11.10;99.90;;;;;;5052971;28;20143;-65
2021/10/17 07:29:48;;;;;;;10.50;4.30;;;11.00;99.90;;;;;;5053644;28;20078;-64
2021/10/17 07:32:14;;;;;;;8.25;4.13;;;11.00;99.90;;;;;;5051593;28;20025;-64
2021/10/17 07:34:40;;;;;;;11.18;4.18;;;11.00;99.90;;;;;;5053671;28;20094;-65
2021/10/17 07:37:05;;;;;;;9.82;4.07;;;11.00;99.90;;;;;;5051853;28;20029;-65
2021/10/17 07:39:31;;;;;;;14.35;3.90;;;11.00;99.90;;;;;;5052120;28;20028;-65
2021/10/17 07:41:58;;;;;;;11.48;4.00;;;11.00;99.90;;;;;;5053747;28;20025;-65
2021/10/17 07:44:24;;;;;;;12.38;3.55;;;11.00;99.90;;;;;;5052955;28;20078;-66
2021/10/17 07:46:50;;;;;;;9.02;4.30;;;10.90;99.90;;;;;;5052041;28;20144;-65
2021/10/17 07:49:15;;;;;;;8.57;4.78;;;10.90;99.90;;;;;;5052870;28;20033;-65
2021/10/17 07:51:41;;;;;;;10.13;4.60;;;11.00;99.90;;;;;;5053397;28;20033;-65
2021/10/17 07:54:08;;;;;;;9.27;4.65;;;11.00;99.90;;;;;;5052145;28;20029;-67
2021/10/17 07:56:34;;;;;;;9.73;3.67;;;11.10;99.90;;;;;;5053183;28;20405;-66
2021/10/17 07:59:00;;;;;;;9.02;4.25;;;11.10;99.90;;;;;;5052656;28;20029;-65
2021/10/17 08:01:25;;;;;;;7.32;4.05;;;11.20;99.90;;;;;;5052667;28;20025;-66
2021/10/17 08:03:51;;;;;;;16.95;4.88;;;11.20;99.90;;;;;;5053008;28;20382;-66
2021/10/17 08:06:17;;;;;;;11.23;4.60;;;11.20;99.90;;;;;;5050959;28;20025;-66
2021/10/17 08:08:42;;;;;;;14.20;3.92;;;11.30;99.90;;;;;;5052857;28;20025;-65
2021/10/17 08:11:08;;;;;;;7.47;3.88;;;11.30;99.90;;;;;;5050904;28;20072;-67
2021/10/17 08:13:34;;;;;;;8.18;4.10;;;11.40;99.90;;;;;;5053087;28;20048;-65
2021/10/17 08:16:00;;;;;;;15.30;4.43;;;11.40;99.90;;;;;;5052526;28;20486;-66
2021/10/17 08:18:26;;;;;;;10.20;4.53;;;11.50;99.90;;;;;;5051847;28;20033;-65
2021/10/17 08:20:52;;;;;;;9.88;4.22;;;11.50;99.90;;;;;;5051588;28;20056;-66
2021/10/17 08:23:19;;;;;;;11.80;5.35;;;11.40;99.90;;;;;;5052506;28;20355;-66
2021/10/17 08:25:45;;;;;;;12.48;4.30;;;11.50;99.90;;;;;;5052267;28;20045;-65
2021/10/17 08:28:12;;;;;;;11.15;4.45;;;11.50;99.90;;;;;;5051669;28;20040;-66
2021/10/17 08:30:38;;;;;;;7.85;3.58;;;11.60;99.90;;;;;;5052313;28;20029;-65
2021/10/17 08:33:06;;;;;;;12.73;4.10;;;11.60;99.90;;;;;;5052534;28;20081;-66
2021/10/17 08:35:32;;;;;;;13.82;4.43;;;11.70;99.90;;;;;;5050746;28;20033;-66
2021/10/17 08:37:58;;;;;;;9.32;4.38;;;11.70;99.90;;;;;;5051183;28;20033;-65
2021/10/17 08:40:24;;;;;;;8.07;3.78;;;11.70;99.90;;;;;;5051641;28;20036;-66
2021/10/17 08:42:50;;;;;;;17.10;5.00;;;11.80;99.90;;;;;;5052321;28;20025;-66
2021/10/17 08:45:18;;;;;;;14.40;4.50;;;11.90;99.90;;;;;;5050430;28;20087;-66
2021/10/17 08:47:46;;;;;;;10.85;3.42;;;12.00;99.90;;;;;;5051830;28;20043;-66
2021/10/17 08:50:14;;;;;;;5.93;3.42;;;12.10;99.90;;;;;;5051681;28;20025;-67
2021/10/17 08:52:40;;;;;;;12.05;3.78;;;12.00;99.90;;;;;;5050808;28;20047;-65
2021/10/17 08:55:07;;;;;;;7.65;3.53;;;11.80;99.90;;;;;;5052166;28;20481;-65
2021/10/17 08:57:33;;;;;;;9.27;3.72;;;11.90;99.90;;;;;;5050557;28;20033;-66
2021/10/17 09:00:00;;;;;;;9.55;3.65;;;12.00;99.90;;;;;;5050614;28;20434;-66
2021/10/17 09:02:26;;;;;;;6.30;3.90;;;12.10;99.90;;;;;;5051386;28;20058;-66
2021/10/17 09:05:05;;;;;;;20.05;5.70;;;12.20;99.90;;;;;;5050640;28;20082;-67
2021/10/17 09:07:30;;;;;;;11.23;3.85;;;12.40;99.90;;;;;;5050093;28;20021;-67
2021/10/17 09:10:11;;;;;;;11.30;4.85;;;12.60;99.90;;;;;;5049955;28;20036;-65
2021/10/17 09:12:38;;;;;;;12.57;3.53;;;12.70;99.90;;;;;;5050390;28;20060;-67
2021/10/17 09:15:24;;;;;;;10.43;3.70;;;12.90;99.90;;;;;;5050519;28;20455;-66
2021/10/17 09:18:05;;;;;;;6.28;3.42;;;13.10;99.90;;;;;;5050415;28;20029;-66
2021/10/17 09:20:33;;;;;;;11.95;3.63;;;13.30;99.90;;;;;;5050085;28;20033;-67
2021/10/17 09:23:00;;;;;;;7.35;4.00;;;13.40;99.90;;;;;;5049749;28;20021;-67
2021/10/17 09:25:44;;;;;;;7.63;2.83;;;13.60;99.90;;;;;;5050797;28;20122;-66
2021/10/17 09:28:17;;;;;;;7.72;3.20;;;13.90;99.90;;;;;;5049617;28;20100;-68
2021/10/17 09:30:55;;;;;;;10.93;3.80;;;14.00;99.90;;;;;;5050160;28;20060;-66
2021/10/17 09:33:21;;;;;;;9.65;3.75;;;14.30;99.90;;;;;;5050992;28;20033;-67
2021/10/17 09:35:46;;;;;;;7.53;3.75;;;14.40;99.90;;;;;;5050254;28;20028;-65
2021/10/17 09:38:16;;;;;;;8.00;3.10;;;14.40;99.90;;;;;;5050562;28;20343;-65
2021/10/17 09:40:43;;;;;;;9.70;2.78;;;14.20;99.90;;;;;;5049359;28;20058;-65
2021/10/17 09:43:11;;;;;;;8.20;3.08;;;14.40;99.90;;;;;;5050964;28;20059;-65
2021/10/17 09:45:37;;;;;;;8.88;3.83;;;14.70;99.90;;;;;;5049215;28;20028;-65
2021/10/17 09:48:03;;;;;;;6.32;2.50;;;14.30;99.90;;;;;;5050696;28;20059;-66
2021/10/17 09:50:29;;;;;;;6.45;2.35;;;14.30;99.90;;;;;;5048629;28;20166;-66
2021/10/17 09:52:56;;;;;;;6.53;2.67;;;14.80;99.90;;;;;;5050568;28;20386;-66
2021/10/17 09:55:22;;;;;;;13.55;2.40;;;14.70;99.90;;;;;;5050051;28;20029;-66
2021/10/17 09:57:48;;;;;;;7.80;2.70;;;15.10;99.90;;;;;;5049250;28;20166;-66
2021/10/17 10:00:14;;;;;;;5.88;2.78;;;15.00;99.90;;;;;;5049728;28;20492;-66
2021/10/17 10:02:47;;;;;;;5.40;2.55;;;15.10;99.90;;;;;;5049507;28;20028;-65
2021/10/17 10:05:18;;;;;;;7.45;2.67;;;15.40;99.50;;;;;;5049919;28;20075;-66
2021/10/17 10:07:49;;;;;;;4.88;2.30;;;15.80;99.50;;;;;;5048977;28;20508;-66
2021/10/17 10:10:17;;;;;;;7.22;2.42;;;16.40;99.20;;;;;;5049642;28;20477;-66
2021/10/17 10:12:45;;;;;;;6.10;2.78;;;16.70;98.10;;;;;;5050478;28;20033;-66
2021/10/17 10:15:11;;;;;;;5.53;2.72;;;16.90;97.20;;;;;;5050363;28;20032;-65
2021/10/17 10:17:42;;;;;;;6.15;2.38;;;17.30;97.70;;;;;;5049175;28;20485;-66
2021/10/17 10:20:09;;;;;;;5.75;2.63;;;18.00;99.80;;;;;;5049731;28;20025;-66
2021/10/17 10:22:35;;;;;;;6.10;1.83;;;18.30;98.20;;;;;;5054176;28;20386;-66
2021/10/17 10:25:01;;;;;;;7.43;2.50;;;18.40;97.80;;;;;;5053096;28;20028;-66
2021/10/17 10:27:28;;;;;;;4.60;2.20;;;18.50;96.90;;;;;;5052878;28;20043;-66
2021/10/17 10:30:19;;;;;;;6.20;2.38;;;18.60;96.80;;;;;;5054673;28;20367;-66
2021/10/17 10:33:10;;;;;;;6.13;2.55;;;18.10;96.40;;;;;;5053042;28;20105;-65
2021/10/17 10:35:56;;;;;;;8.18;2.58;;;17.90;96.30;;;;;;5052400;28;20174;-67
2021/10/17 10:39:03;;;;;;;5.63;2.50;;;17.80;96.40;;;;;;5053382;28;20039;-66
2021/10/17 10:41:31;;;;;;;9.32;2.05;;;17.20;96.70;;;;;;5046496;28;20029;-67
2021/10/17 10:44:27;;;;;;;5.25;2.13;;;16.60;97.00;;;;;;5048871;28;20024;-66
2021/10/17 10:46:55;;;;;;;6.35;2.03;;;16.50;96.80;;;;;;5050449;28;20394;-67
2021/10/17 10:49:42;;;;;;;3.00;1.40;;;16.30;99.90;;;;;;5051958;28;20455;-77
2021/10/17 10:52:27;;;;;;;3.72;1.73;;;17.60;99.90;;;;;;5051333;28;20048;-76
2021/10/17 10:54:58;;;;;;;9.30;2.70;;;17.30;98.60;;;;;;5049020;28;20036;-75
2021/10/17 10:57:29;;;;;;;6.30;2.43;;;17.10;98.40;;;;;;5052439;28;20036;-76
2021/10/17 10:59:59;;;;;;;11.77;2.47;;;17.70;98.40;;;;;;5049513;28;20108;-75
2021/10/17 11:02:25;;;;;;;7.88;2.38;;;18.10;96.70;;;;;;5052210;28;20075;-75
2021/10/17 11:04:51;;;;;;;9.18;1.75;;;18.30;95.90;;;;;;5052765;28;20029;-77
2021/10/17 11:07:23;;;;;;;5.68;1.70;;;18.40;95.80;;;;;;5050468;28;20112;-75
2021/10/17 11:09:50;;;;;;;5.10;2.03;;;18.30;95.10;;;;;;5051885;28;20052;-75
2021/10/17 11:12:38;;;;;;;7.28;2.22;;;18.20;95.00;;;;;;5051457;28;20455;-76
2021/10/17 11:15:04;;;;;;;4.80;2.45;;;18.50;95.30;;;;;;5033487;28;20132;-75
2021/10/17 11:17:30;;;;;;;7.47;1.92;;;18.60;95.00;;;;;;5050293;28;20036;-75
2021/10/17 11:19:56;;;;;;;5.72;1.52;;;18.80;94.50;;;;;;5049111;28;20327;-75
2021/10/17 11:22:23;;;;;;;4.63;2.13;;;18.80;94.50;;;;;;5045389;28;20029;-75
2021/10/17 11:24:53;;;;;;;5.45;2.20;;;18.70;94.10;;;;;;5051574;28;20032;-75
2021/10/17 11:27:18;;;;;;;5.00;1.95;;;18.80;94.30;;;;;;5044511;28;20071;-64
2021/10/17 11:29:46;;;;;;;8.20;2.35;;;18.70;92.40;;;;;;5051962;28;20477;-63
2021/10/17 11:32:19;;;;;;;5.65;2.22;;;18.80;92.60;;;;;;5049671;28;20116;-64
2021/10/17 11:34:58;;;;;;;5.63;1.98;;;18.70;92.60;;;;;;5049248;28;20079;-63
2021/10/17 11:37:26;;;;;;;7.18;2.25;;;18.70;92.80;;;;;;5051052;28;20497;-62
2021/10/17 11:39:56;;;;;;;6.32;2.00;;;19.00;92.30;;;;;;5051051;28;20030;-64
2021/10/17 11:42:24;;;;;;;6.27;2.30;;;19.20;91.90;;;;;;5044727;28;20083;-64
2021/10/17 11:44:50;;;;;;;5.75;2.20;;;18.60;91.90;;;;;;5051639;28;20045;-63
2021/10/17 11:47:18;;;;;;;3.55;1.40;;;18.80;92.20;;;;;;5052717;28;20108;-64
2021/10/17 11:49:44;;;;;;;5.57;2.20;;;19.10;91.80;;;;;;5053043;28;20032;-64
2021/10/17 11:52:17;;;;;;;4.55;1.85;;;19.10;91.00;;;;;;5051865;28;20036;-51
2021/10/17 11:54:48;;;;;;;5.38;1.75;;;19.20;91.20;;;;;;5053175;28;20362;-51
2021/10/17 11:57:31;;;;;;;7.10;2.28;;;19.10;91.20;;;;;;5052275;28;20185;-52
2021/10/17 12:00:03;;;;;;;5.72;1.83;;;19.20;91.10;;;;;;5051277;28;20540;-53
2021/10/17 12:02:36;;;;;;;5.72;1.50;;;19.20;90.60;;;;;;5051639;28;20420;-52
2021/10/17 12:05:07;;;;;;;11.73;2.03;;;19.30;90.70;;;;;;5053208;28;20163;-51
2021/10/17 12:07:33;;;;;;;6.20;1.73;;;19.70;89.60;;;;;;5067444;28;20108;-52
2021/10/17 12:09:59;;;;;;;8.68;2.05;;;19.40;89.10;;;;;;5046514;28;20044;-52
2021/10/17 12:12:24;;;;;;;7.32;1.65;;;19.60;89.20;;;;;;5048858;28;20045;-51
2021/10/17 12:15:07;;;;;;;8.25;2.08;;;19.90;89.10;;;;;;5049046;28;20381;-52
2021/10/17 12:17:34;;;;;;;7.45;1.85;;;19.80;88.50;;;;;;5050700;28;20040;-51
2021/10/17 12:20:02;;;;;;;7.57;1.95;;;19.90;88.40;;;;;;5050101;28;20051;-53
2021/10/17 12:22:29;;;;;;;15.60;9.57;;;19.90;88.10;;;;;;5045722;28;20039;-65
2021/10/17 12:24:59;;;;;;;33.92;24.48;;;19.70;84.00;;;;;;5049682;28;20029;-66
2021/10/17 12:27:35;;;;;;;6.73;2.90;;;19.10;86.00;;;;;;5056198;28;20116;-65
2021/10/17 12:30:04;;;;;;;4.40;1.70;;;19.10;85.50;;;;;;5051843;28;20028;-64
2021/10/17 12:32:50;;;;;;;3.38;1.33;;;18.70;86.50;;;;;;5057468;28;20021;-64
2021/10/17 12:35:34;;;;;;;4.47;1.42;;;18.10;87.60;;;;;;5068523;28;20025;-65
2021/10/17 12:38:18;;;;;;;7.38;2.58;;;18.70;87.60;;;;;;5059889;28;20350;-66
2021/10/17 12:40:59;;;;;;;5.53;1.80;;;19.00;86.10;;;;;;5070798;28;20027;-66
2021/10/17 12:43:37;;;;;;;8.37;2.53;;;19.20;85.90;;;;;;5068996;28;20233;-66
2021/10/17 12:46:20;;;;;;;5.82;1.55;;;19.30;85.00;;;;;;5070640;28;20071;-66